createdAt,value
2017-08-30T00:00:41.129Z,95721.64
2017-08-30T00:03:08.722Z,95719.88
2017-08-30T00:05:36.285Z,95716.80
2017-08-30T00:08:04.023Z,95716.72
2017-08-30T00:10:31.548Z,95722.68
2017-08-30T00:12:59.315Z,95722.83
2017-08-30T00:15:26.900Z,95721.45
2017-08-30T00:17:54.494Z,95702.67
2017-08-30T00:20:22.857Z,95718.39
2017-08-30T00:22:50.429Z,95723.55
2017-08-30T00:25:31.029Z,95717.17
2017-08-30T00:27:58.821Z,95718.67
2017-08-30T00:30:26.432Z,95727.23
2017-08-30T00:32:54.219Z,95722.78
2017-08-30T00:35:21.897Z,95725.82
2017-08-30T00:37:49.444Z,95718.98
2017-08-30T00:40:17.244Z,95724.16
2017-08-30T00:42:44.778Z,95722.33
2017-08-30T00:45:12.341Z,95719.91
2017-08-30T00:47:40.196Z,95718.59
2017-08-30T00:50:07.795Z,95721.10
2017-08-30T00:52:35.370Z,95720.23
2017-08-30T00:55:03.285Z,95721.81
2017-08-30T00:57:30.843Z,95722.81
2017-08-30T00:59:58.414Z,95719.49
2017-08-30T01:02:25.975Z,95725.34
2017-08-30T01:04:53.519Z,95722.91
2017-08-30T01:07:23.722Z,95727.98
2017-08-30T01:09:51.315Z,95728.44
2017-08-30T01:12:19.082Z,95726.77
2017-08-30T01:14:46.608Z,95724.77
2017-08-30T01:17:14.415Z,95725.09
2017-08-30T01:19:42.007Z,95727.39
2017-08-30T01:22:09.585Z,95719.61
2017-08-30T01:24:37.142Z,95717.02
2017-08-30T01:27:04.706Z,95729.96
2017-08-30T01:29:32.456Z,95726.24
2017-08-30T01:32:00.228Z,95724.34
2017-08-30T01:34:28.019Z,95723.31
2017-08-30T01:36:55.538Z,95721.86
2017-08-30T01:39:23.320Z,95729.64
2017-08-30T01:41:50.912Z,95728.04
2017-08-30T01:44:18.495Z,95732.18
2017-08-30T01:46:46.071Z,95732.69
2017-08-30T01:49:13.605Z,95736.75
2017-08-30T01:51:41.139Z,95733.97
2017-08-30T01:54:08.718Z,95729.49
2017-08-30T01:56:36.381Z,95728.08
2017-08-30T01:59:03.950Z,95730.17
2017-08-30T02:01:31.503Z,95721.91
2017-08-30T02:03:59.366Z,95722.63
2017-08-30T02:06:26.881Z,95723.86
2017-08-30T02:08:54.624Z,95723.45
2017-08-30T02:11:22.369Z,95721.77
2017-08-30T02:13:49.983Z,95725.27
2017-08-30T02:16:17.599Z,95726.27
2017-08-30T02:18:45.181Z,95728.30
2017-08-30T02:21:12.756Z,95736.18
2017-08-30T02:23:40.355Z,95734.34
2017-08-30T02:26:07.912Z,95732.36
2017-08-30T02:28:35.433Z,95737.13
2017-08-30T02:31:03.129Z,95732.67
2017-08-30T02:33:30.886Z,95737.53
2017-08-30T02:35:59.828Z,95734.92
2017-08-30T02:38:27.427Z,95738.73
2017-08-30T02:40:55.187Z,95735.06
2017-08-30T02:43:22.732Z,95743.39
2017-08-30T02:45:50.333Z,95739.75
2017-08-30T02:48:17.850Z,95751.91
2017-08-30T02:50:45.414Z,95739.75
2017-08-30T02:53:13.049Z,95736.67
2017-08-30T02:55:40.574Z,95744.46
2017-08-30T02:58:08.432Z,95745.52
2017-08-30T03:00:35.996Z,95744.89
2017-08-30T03:03:03.522Z,95745.44
2017-08-30T03:05:31.108Z,95743.59
2017-08-30T03:07:58.674Z,95753.20
2017-08-30T03:10:26.237Z,95747.22
2017-08-30T03:12:53.749Z,95754.23
2017-08-30T03:15:21.603Z,95760.25
2017-08-30T03:17:49.125Z,95756.95
2017-08-30T03:20:16.887Z,95762.71
2017-08-30T03:22:44.466Z,95764.23
2017-08-30T03:25:11.988Z,95776.92
2017-08-30T03:27:39.558Z,95769.84
2017-08-30T03:30:07.420Z,95775.59
2017-08-30T03:32:34.943Z,95775.44
2017-08-30T03:35:02.459Z,95777.84
2017-08-30T03:37:30.116Z,95774.62
2017-08-30T03:39:57.960Z,95780.25
2017-08-30T03:42:25.510Z,95782.19
2017-08-30T03:44:53.400Z,95782.34
2017-08-30T03:47:20.950Z,95799.45
2017-08-30T03:49:48.821Z,95800.70
2017-08-30T03:52:16.388Z,95790.84
2017-08-30T03:54:43.905Z,95794.16
2017-08-30T03:57:12.181Z,95796.37
2017-08-30T03:59:39.739Z,95795.48
2017-08-30T04:02:07.337Z,95798.42
2017-08-30T04:04:34.865Z,95797.94
2017-08-30T04:07:02.423Z,95795.63
2017-08-30T04:09:29.993Z,95798.30
2017-08-30T04:11:57.515Z,95801.23
2017-08-30T04:14:25.272Z,95803.02
2017-08-30T04:16:52.840Z,95805.33
2017-08-30T04:19:20.370Z,95810.88
2017-08-30T04:21:47.914Z,95808.98
2017-08-30T04:24:15.515Z,95811.30
2017-08-30T04:26:43.061Z,95813.44
2017-08-30T04:29:10.869Z,95823.22
2017-08-30T04:31:38.455Z,95815.30
2017-08-30T04:34:06.223Z,95818.56
2017-08-30T04:36:33.771Z,95810.77
2017-08-30T04:39:01.469Z,95818.91
2017-08-30T04:41:29.066Z,95820.73
2017-08-30T04:44:13.350Z,95825.59
2017-08-30T04:46:40.976Z,95830.25
2017-08-30T04:49:08.561Z,95822.16
2017-08-30T04:51:36.329Z,95823.02
2017-08-30T04:54:04.181Z,95822.52
2017-08-30T04:56:31.727Z,95824.41
2017-08-30T04:58:59.278Z,95822.80
2017-08-30T05:01:26.840Z,95823.70
2017-08-30T05:03:54.382Z,95821.17
2017-08-30T05:06:21.977Z,95828.63
2017-08-30T05:08:49.600Z,95824.98
2017-08-30T05:11:17.204Z,95831.41
2017-08-30T05:13:44.764Z,95820.33
2017-08-30T05:16:12.363Z,95814.96
2017-08-30T05:18:39.977Z,95826.80
2017-08-30T05:21:07.523Z,95819.25
2017-08-30T05:23:35.127Z,95820.47
2017-08-30T05:26:02.691Z,95824.87
2017-08-30T05:28:30.256Z,95822.85
2017-08-30T05:30:58.190Z,95817.59
2017-08-30T05:33:25.740Z,95821.83
2017-08-30T05:35:53.285Z,95821.21
2017-08-30T05:38:20.889Z,95830.68
2017-08-30T05:40:48.421Z,95821.27
2017-08-30T05:43:15.949Z,95823.83
2017-08-30T05:45:43.655Z,95831.11
2017-08-30T05:48:11.201Z,95831.10
2017-08-30T05:50:38.751Z,95833.27
2017-08-30T05:53:06.320Z,95829.66
2017-08-30T05:55:33.871Z,95828.95
2017-08-30T05:58:01.428Z,95837.17
2017-08-30T06:00:28.987Z,95822.47
2017-08-30T06:02:56.560Z,95826.59
2017-08-30T06:05:24.381Z,95836.22
2017-08-30T06:07:51.966Z,95830.88
2017-08-30T06:10:19.555Z,95836.12
2017-08-30T06:12:47.086Z,95835.02
2017-08-30T06:15:14.646Z,95837.58
2017-08-30T06:17:42.194Z,95838.47
2017-08-30T06:20:09.748Z,95836.08
2017-08-30T06:22:37.328Z,95837.44
2017-08-30T06:25:04.859Z,95841.75
2017-08-30T06:27:32.462Z,95838.19
2017-08-30T06:30:00.015Z,95841.85
2017-08-30T06:32:27.618Z,95839.53
2017-08-30T06:34:55.165Z,95852.96
2017-08-30T06:37:22.770Z,95843.80
2017-08-30T06:39:50.364Z,95845.92
2017-08-30T06:42:17.900Z,95851.17
2017-08-30T06:44:45.583Z,95844.91
2017-08-30T06:47:13.194Z,95845.78
2017-08-30T06:49:40.963Z,95842.89
2017-08-30T06:52:08.544Z,95846.53
2017-08-30T06:54:36.147Z,95846.42
2017-08-30T06:57:03.703Z,95853.29
2017-08-30T06:59:31.450Z,95850.60
2017-08-30T07:01:59.186Z,95852.59
2017-08-30T07:04:26.707Z,95862.52
2017-08-30T07:06:54.236Z,95851.62
2017-08-30T07:09:21.885Z,95834.13
2017-08-30T07:11:49.404Z,95839.00
2017-08-30T07:14:17.138Z,95842.32
2017-08-30T07:16:44.728Z,95847.11
2017-08-30T07:19:12.317Z,95846.58
2017-08-30T07:21:39.994Z,95846.47
2017-08-30T07:24:07.566Z,95847.87
2017-08-30T07:26:35.241Z,95845.20
2017-08-30T07:29:02.794Z,95837.52
2017-08-30T07:31:30.459Z,95843.68
2017-08-30T07:33:58.122Z,95834.11
2017-08-30T07:36:25.696Z,95826.58
2017-08-30T07:38:53.321Z,95841.30
2017-08-30T07:41:20.874Z,95840.40
2017-08-30T07:43:48.489Z,95833.83
2017-08-30T07:46:16.201Z,95831.41
2017-08-30T07:48:43.803Z,95837.14
2017-08-30T07:51:12.142Z,95827.14
2017-08-30T07:53:40.347Z,95813.72
2017-08-30T07:56:07.951Z,95825.46
2017-08-30T07:58:35.547Z,95823.70
2017-08-30T08:01:03.178Z,95821.49
2017-08-30T08:03:30.801Z,95822.20
2017-08-30T08:05:58.360Z,95818.30
2017-08-30T08:08:26.377Z,95822.81
2017-08-30T08:10:54.130Z,95821.55
2017-08-30T08:13:22.390Z,95824.44
2017-08-30T08:15:50.015Z,95829.17
2017-08-30T08:18:17.524Z,95827.69
2017-08-30T08:20:45.362Z,95829.21
2017-08-30T08:23:12.987Z,95824.13
2017-08-30T08:25:40.536Z,95827.55
2017-08-30T08:28:11.090Z,95826.09
2017-08-30T08:30:38.720Z,95827.72
2017-08-30T08:33:06.290Z,95821.25
2017-08-30T08:35:33.847Z,95823.62
2017-08-30T08:38:01.434Z,95823.82
2017-08-30T08:40:28.986Z,95831.37
2017-08-30T08:42:56.636Z,95826.02
2017-08-30T08:45:24.229Z,95816.44
2017-08-30T08:47:51.814Z,95822.63
2017-08-30T08:50:19.436Z,95824.20
2017-08-30T08:52:47.006Z,95824.38
2017-08-30T08:55:14.947Z,95823.68
2017-08-30T08:57:42.790Z,95824.98
2017-08-30T09:00:10.567Z,95820.95
2017-08-30T09:02:38.132Z,95811.33
2017-08-30T09:05:05.725Z,95814.80
2017-08-30T09:07:33.301Z,95814.63
2017-08-30T09:10:01.057Z,95807.80
2017-08-30T09:12:28.627Z,95811.08
2017-08-30T09:14:56.229Z,95812.45
2017-08-30T09:17:23.750Z,95800.69
2017-08-30T09:19:51.302Z,95797.06
2017-08-30T09:22:18.892Z,95801.70
2017-08-30T09:24:46.416Z,95800.70
2017-08-30T09:27:14.066Z,95803.72
2017-08-30T09:29:41.711Z,95793.48
2017-08-30T09:32:09.261Z,95795.98
2017-08-30T09:34:36.859Z,95812.70
2017-08-30T09:37:04.421Z,95809.37
2017-08-30T09:39:32.033Z,95801.59
2017-08-30T09:41:59.830Z,95798.11
2017-08-30T09:44:27.361Z,95803.38
2017-08-30T09:46:55.180Z,95790.53
2017-08-30T09:49:22.713Z,95783.15
2017-08-30T09:51:51.481Z,95791.95
2017-08-30T09:54:19.142Z,95784.05
2017-08-30T09:56:47.591Z,95788.74
2017-08-30T09:59:15.341Z,95781.67
2017-08-30T10:01:44.165Z,95769.65
2017-08-30T10:04:11.668Z,95763.37
2017-08-30T10:06:39.254Z,95773.56
2017-08-30T10:09:06.852Z,95784.08
2017-08-30T10:11:34.458Z,95776.22
2017-08-30T10:14:02.243Z,95767.41
2017-08-30T10:16:31.920Z,95771.08
2017-08-30T10:19:02.732Z,95772.55
2017-08-30T10:21:31.432Z,95762.79
2017-08-30T10:23:58.992Z,95758.05
2017-08-30T10:26:27.542Z,95762.50
2017-08-30T10:28:55.140Z,95762.42
2017-08-30T10:31:22.756Z,95760.88
2017-08-30T10:33:50.398Z,95750.38
2017-08-30T10:36:18.131Z,95747.75
2017-08-30T10:38:46.614Z,95749.38
2017-08-30T10:41:14.932Z,95747.78
2017-08-30T10:43:42.556Z,95745.83
2017-08-30T10:46:10.866Z,95733.89
2017-08-30T10:48:39.181Z,95733.47
2017-08-30T10:51:06.806Z,95727.11
2017-08-30T10:53:34.391Z,95734.67
2017-08-30T10:56:02.126Z,95733.75
2017-08-30T10:58:29.716Z,95734.87
2017-08-30T11:00:57.314Z,95731.79
2017-08-30T11:03:25.121Z,95722.77
2017-08-30T11:05:52.762Z,95727.49
2017-08-30T11:08:20.354Z,95731.61
2017-08-30T11:10:47.906Z,95720.44
2017-08-30T11:13:15.457Z,95720.59
2017-08-30T11:15:45.539Z,95714.55
2017-08-30T11:18:13.296Z,95711.92
2017-08-30T11:20:40.857Z,95713.39
2017-08-30T11:23:08.465Z,95708.85
2017-08-30T11:25:36.198Z,95711.61
2017-08-30T11:28:03.955Z,95716.77
2017-08-30T11:30:31.924Z,95704.12
2017-08-30T11:32:59.667Z,95703.56
2017-08-30T11:35:27.450Z,95697.39
2017-08-30T11:38:01.006Z,95690.15
2017-08-30T11:40:29.750Z,95689.28
2017-08-30T11:42:58.590Z,95683.23
2017-08-30T11:45:26.137Z,95696.45
2017-08-30T11:47:53.844Z,95691.28
2017-08-30T11:50:21.517Z,95683.86
2017-08-30T11:52:49.175Z,95680.64
2017-08-30T11:55:16.923Z,95686.49
2017-08-30T11:57:44.538Z,95678.48
2017-08-30T12:00:12.208Z,95674.27
2017-08-30T12:02:39.735Z,95665.05
2017-08-30T12:05:07.316Z,95670.84
2017-08-30T12:07:39.317Z,95664.33
2017-08-30T12:10:06.857Z,95661.58
2017-08-30T12:12:35.287Z,95659.94
2017-08-30T12:15:03.501Z,95662.63
2017-08-30T12:17:31.193Z,95651.49
2017-08-30T12:19:58.773Z,95661.45
2017-08-30T12:22:26.368Z,95646.52
2017-08-30T12:24:54.840Z,95647.25
2017-08-30T12:27:22.843Z,95639.11
2017-08-30T12:29:50.444Z,95638.22
2017-08-30T12:32:18.269Z,95636.63
2017-08-30T12:34:45.883Z,95635.98
2017-08-30T12:37:18.994Z,95626.52
2017-08-30T12:39:46.548Z,95621.37
2017-08-30T12:42:14.191Z,95621.30
2017-08-30T12:44:42.662Z,95620.52
2017-08-30T12:47:10.308Z,95614.66
2017-08-30T12:49:37.897Z,95627.02
2017-08-30T12:52:05.847Z,95623.66
2017-08-30T12:54:33.780Z,95622.33
2017-08-30T12:57:01.405Z,95614.47
2017-08-30T12:59:29.013Z,95610.08
2017-08-30T13:01:56.794Z,95608.42
2017-08-30T13:04:24.602Z,95610.06
2017-08-30T13:06:52.377Z,95606.56
2017-08-30T13:09:20.372Z,95607.64
2017-08-30T13:11:47.925Z,95607.11
2017-08-30T13:14:16.755Z,95606.29
2017-08-30T13:16:44.381Z,95606.65
2017-08-30T13:19:12.805Z,95606.96
2017-08-30T13:21:40.356Z,95610.06
2017-08-30T13:24:08.095Z,95609.88
2017-08-30T13:26:36.975Z,95605.17
2017-08-30T13:29:04.611Z,95599.81
2017-08-30T13:31:32.454Z,95605.77
2017-08-30T13:34:00.212Z,95601.27
2017-08-30T13:36:27.870Z,95601.87
2017-08-30T13:38:56.701Z,95603.53
2017-08-30T13:41:24.285Z,95604.84
2017-08-30T13:43:51.883Z,95612.25
2017-08-30T13:46:19.546Z,95607.55
2017-08-30T13:48:47.352Z,95602.13
2017-08-30T13:51:14.945Z,95597.02
2017-08-30T13:53:42.553Z,95602.92
2017-08-30T13:56:10.231Z,95589.34
2017-08-30T13:58:37.817Z,95585.17
2017-08-30T14:01:05.437Z,95595.16
2017-08-30T14:03:33.068Z,95594.12
2017-08-30T14:06:00.624Z,95588.70
2017-08-30T14:08:28.198Z,95588.28
2017-08-30T14:10:56.682Z,95593.98
2017-08-30T14:13:24.307Z,95583.51
2017-08-30T14:15:51.980Z,95588.89
2017-08-30T14:18:19.616Z,95578.48
2017-08-30T14:20:47.196Z,95580.75
2017-08-30T14:23:19.601Z,95588.55
2017-08-30T14:25:50.665Z,95585.02
2017-08-30T14:28:21.515Z,95586.64
2017-08-30T14:30:49.804Z,95587.87
2017-08-30T14:33:17.417Z,95582.78
2017-08-30T14:35:45.121Z,95576.16
2017-08-30T14:38:12.729Z,95583.39
2017-08-30T14:40:40.315Z,95588.30
2017-08-30T14:43:08.054Z,95587.95
2017-08-30T14:45:35.601Z,95586.13
2017-08-30T14:48:03.148Z,95580.47
2017-08-30T14:50:30.763Z,95580.53
2017-08-30T14:52:58.700Z,95575.48
2017-08-30T14:55:26.729Z,95574.64
2017-08-30T14:57:55.598Z,95573.14
2017-08-30T15:00:23.201Z,95572.02
2017-08-30T15:02:51.601Z,95572.57
2017-08-30T15:05:21.744Z,95575.31
2017-08-30T15:07:49.387Z,95576.12
2017-08-30T15:10:16.940Z,95575.05
2017-08-30T15:12:44.489Z,95562.92
2017-08-30T15:15:12.232Z,95562.75
2017-08-30T15:17:39.815Z,95565.19
2017-08-30T15:20:07.407Z,95562.05
2017-08-30T15:22:35.023Z,95557.95
2017-08-30T15:25:02.579Z,95563.33
2017-08-30T15:27:30.118Z,95564.38
2017-08-30T15:29:57.790Z,95563.25
2017-08-30T15:32:25.391Z,95575.98
2017-08-30T15:34:52.940Z,95564.41
2017-08-30T15:37:20.492Z,95571.41
2017-08-30T15:39:48.111Z,95571.34
2017-08-30T15:42:15.691Z,95575.89
2017-08-30T15:44:43.435Z,95578.07
2017-08-30T15:47:11.478Z,95578.42
2017-08-30T15:49:39.082Z,95576.22
2017-08-30T15:52:06.835Z,95576.61
2017-08-30T15:54:34.647Z,95581.13
2017-08-30T15:57:02.460Z,95580.00
2017-08-30T15:59:31.796Z,95581.38
2017-08-30T16:02:00.840Z,95590.91
2017-08-30T16:04:30.157Z,95584.30
2017-08-30T16:06:59.443Z,95590.22
2017-08-30T16:09:27.031Z,95588.73
2017-08-30T16:11:54.600Z,95593.78
2017-08-30T16:14:22.202Z,95597.83
2017-08-30T16:16:49.965Z,95599.00
2017-08-30T16:19:17.567Z,95601.13
2017-08-30T16:22:33.964Z,95600.92
2017-08-30T16:25:01.868Z,95593.36
2017-08-30T16:27:29.422Z,95602.21
2017-08-30T16:29:57.767Z,95600.91
2017-08-30T16:32:25.347Z,95608.33
2017-08-30T16:34:52.897Z,95609.58
2017-08-30T16:37:20.465Z,95609.47
2017-08-30T16:39:49.541Z,95617.87
2017-08-30T16:42:17.152Z,95618.59
2017-08-30T16:44:44.757Z,95619.64
2017-08-30T16:47:16.707Z,95619.00
2017-08-30T16:49:44.363Z,95622.39
2017-08-30T16:52:11.960Z,95622.20
2017-08-30T16:54:39.638Z,95622.30
2017-08-30T16:57:07.246Z,95622.80
2017-08-30T16:59:34.956Z,95620.53
2017-08-30T17:02:02.598Z,95621.13
2017-08-30T17:04:35.263Z,95626.95
2017-08-30T17:07:03.527Z,95632.27
2017-08-30T17:09:31.976Z,95639.74
2017-08-30T17:12:00.283Z,95631.86
2017-08-30T17:14:28.681Z,95642.05
2017-08-30T17:16:56.646Z,95649.76
2017-08-30T17:19:24.253Z,95637.48
2017-08-30T17:21:51.853Z,95641.93
2017-08-30T17:24:19.549Z,95640.77
2017-08-30T17:26:47.526Z,95640.72
2017-08-30T17:29:15.147Z,95650.13
2017-08-30T17:31:42.693Z,95656.03
2017-08-30T17:34:10.445Z,95655.02
2017-08-30T17:36:38.182Z,95661.77
2017-08-30T17:39:05.775Z,95656.58
2017-08-30T17:41:33.351Z,95656.97
2017-08-30T17:44:00.912Z,95667.41
2017-08-30T17:46:28.585Z,95675.75
2017-08-30T17:48:56.289Z,95669.94
2017-08-30T17:51:24.526Z,95673.97
2017-08-30T17:53:52.198Z,95673.48
2017-08-30T17:56:19.881Z,95682.19
2017-08-30T17:58:47.775Z,95676.66
2017-08-30T18:01:15.487Z,95673.26
2017-08-30T18:03:43.535Z,95669.88
2017-08-30T18:06:11.184Z,95680.16
2017-08-30T18:08:39.824Z,95683.14
2017-08-30T18:11:08.245Z,95690.17
2017-08-30T18:13:35.829Z,95691.95
2017-08-30T18:16:04.634Z,95693.44
2017-08-30T18:18:32.274Z,95684.30
2017-08-30T18:20:59.845Z,95696.53
2017-08-30T18:23:34.365Z,95690.06
2017-08-30T18:26:01.889Z,95686.30
2017-08-30T18:28:29.452Z,95692.69
2017-08-30T18:30:57.387Z,95695.03
2017-08-30T18:33:25.075Z,95695.03
2017-08-30T18:35:52.680Z,95689.41
2017-08-30T18:38:20.225Z,95691.40
2017-08-30T18:40:47.773Z,95685.72
2017-08-30T18:43:15.340Z,95689.84
2017-08-30T18:45:42.939Z,95691.00
2017-08-30T18:48:11.515Z,95685.63
2017-08-30T18:50:39.141Z,95684.78
2017-08-30T18:53:06.757Z,95693.11
2017-08-30T18:55:34.604Z,95687.03
2017-08-30T18:58:02.612Z,95683.51
2017-08-30T19:00:30.719Z,95686.84
2017-08-30T19:02:58.958Z,95690.55
2017-08-30T19:05:27.291Z,95690.36
2017-08-30T19:07:54.873Z,95689.20
2017-08-30T19:10:22.446Z,95689.58
2017-08-30T19:12:50.267Z,95689.55
2017-08-30T19:15:18.023Z,95689.77
2017-08-30T19:17:45.606Z,95691.36
2017-08-30T19:20:15.482Z,95697.23
2017-08-30T19:22:43.138Z,95695.27
2017-08-30T19:25:10.723Z,95696.83
2017-08-30T19:27:42.345Z,95698.23
2017-08-30T19:30:11.033Z,95698.81
2017-08-30T19:32:41.557Z,95702.74
2017-08-30T19:35:09.133Z,95697.45
2017-08-30T19:37:36.698Z,95690.56
2017-08-30T19:40:04.375Z,95682.73
2017-08-30T19:42:31.897Z,95698.82
2017-08-30T19:44:59.455Z,95687.64
2017-08-30T19:47:27.041Z,95694.29
2017-08-30T19:49:54.587Z,95703.13
2017-08-30T19:52:22.600Z,95706.05
2017-08-30T19:54:50.200Z,95699.77
2017-08-30T19:57:17.780Z,95713.08
2017-08-30T19:59:46.355Z,95709.94
2017-08-30T20:02:14.013Z,95711.63
2017-08-30T20:04:41.667Z,95706.89
2017-08-30T20:07:09.512Z,95712.06
2017-08-30T20:09:37.094Z,95712.86
2017-08-30T20:12:04.670Z,95715.68
2017-08-30T20:14:32.227Z,95717.80
2017-08-30T20:16:59.823Z,95714.49
2017-08-30T20:19:27.890Z,95720.16
2017-08-30T20:21:55.485Z,95720.08
2017-08-30T20:24:23.101Z,95721.16
2017-08-30T20:26:50.681Z,95723.56
2017-08-30T20:29:22.491Z,95726.48
2017-08-30T20:31:50.099Z,95717.05
2017-08-30T20:34:17.621Z,95728.79
2017-08-30T20:37:02.432Z,95732.45
2017-08-30T20:39:31.107Z,95728.96
2017-08-30T20:41:58.717Z,95728.25
2017-08-30T20:44:27.477Z,95724.36
2017-08-30T20:46:55.056Z,95720.16
2017-08-30T20:49:22.643Z,95728.42
2017-08-30T20:51:50.226Z,95722.99
2017-08-30T20:54:17.818Z,95724.48
2017-08-30T20:56:46.165Z,95733.91
2017-08-30T20:59:13.753Z,95732.36
2017-08-30T21:01:41.293Z,95728.58
2017-08-30T21:04:08.853Z,95733.09
2017-08-30T21:06:36.606Z,95727.58
2017-08-30T21:09:04.210Z,95734.52
2017-08-30T21:11:31.779Z,95733.95
2017-08-30T21:13:59.298Z,95733.74
2017-08-30T21:16:26.875Z,95732.30
2017-08-30T21:18:54.404Z,95734.02
2017-08-30T21:21:23.267Z,95731.21
2017-08-30T21:23:54.905Z,95734.06
2017-08-30T21:26:22.419Z,95725.68
2017-08-30T21:28:49.964Z,95732.25
2017-08-30T21:31:17.582Z,95739.77
2017-08-30T21:33:45.185Z,95741.99
2017-08-30T21:36:12.732Z,95744.02
2017-08-30T21:38:40.337Z,95744.03
2017-08-30T21:41:07.903Z,95745.63
2017-08-30T21:43:35.453Z,95741.18
2017-08-30T21:46:03.041Z,95737.51
2017-08-30T21:48:30.800Z,95740.41
2017-08-30T21:50:58.343Z,95739.40
2017-08-30T21:53:25.940Z,95737.20
2017-08-30T21:55:53.484Z,95739.70
2017-08-30T21:58:21.017Z,95731.35
2017-08-30T22:00:48.611Z,95736.02
2017-08-30T22:03:16.125Z,95734.78
2017-08-30T22:05:43.662Z,95739.77
2017-08-30T22:08:12.041Z,95740.53
2017-08-30T22:10:39.809Z,95738.18
2017-08-30T22:13:07.400Z,95733.27
2017-08-30T22:15:35.032Z,95748.94
2017-08-30T22:18:02.627Z,95738.73
2017-08-30T22:20:30.201Z,95748.70
2017-08-30T22:22:57.768Z,95742.44
2017-08-30T22:25:25.301Z,95745.27
2017-08-30T22:27:52.850Z,95743.73
2017-08-30T22:30:20.457Z,95739.20
2017-08-30T22:32:48.060Z,95739.59
2017-08-30T22:35:15.618Z,95745.67
2017-08-30T22:37:43.203Z,95738.52
2017-08-30T22:40:10.951Z,95735.25
2017-08-30T22:42:38.545Z,95734.82
2017-08-30T22:45:06.119Z,95729.55
2017-08-30T22:47:33.874Z,95733.48
2017-08-30T22:50:01.772Z,95729.33
2017-08-30T22:52:29.349Z,95721.80
2017-08-30T22:54:56.873Z,95722.52
2017-08-30T22:57:24.476Z,95723.55
2017-08-30T22:59:52.719Z,95719.95
2017-08-30T23:02:20.343Z,95719.30
2017-08-30T23:04:47.886Z,95721.19
2017-08-30T23:07:15.428Z,95725.86
2017-08-30T23:09:43.000Z,95718.91
2017-08-30T23:12:11.549Z,95725.09
2017-08-30T23:14:39.060Z,95729.11
2017-08-30T23:17:06.611Z,95724.34
2017-08-30T23:19:34.156Z,95730.64
2017-08-30T23:22:02.244Z,95735.68
2017-08-30T23:24:30.056Z,95726.37
2017-08-30T23:26:57.631Z,95732.70
2017-08-30T23:29:25.203Z,95724.87
2017-08-30T23:31:52.823Z,95734.48
2017-08-30T23:34:20.369Z,95740.94
2017-08-30T23:36:47.891Z,95742.79
2017-08-30T23:39:15.479Z,95739.66
2017-08-30T23:41:43.033Z,95744.05
2017-08-30T23:44:10.647Z,95748.09
2017-08-30T23:46:38.222Z,95750.97
2017-08-30T23:49:05.749Z,95754.28
2017-08-30T23:51:33.278Z,95744.47
2017-08-30T23:54:00.833Z,95745.48
2017-08-30T23:56:28.361Z,95742.49
2017-08-30T23:58:55.888Z,95745.48
